F/V Cote D'ambre — FPEY — position and weather

sailwx.info

Track history (hours):
 
Tides and Currents Weather Stations Pressure Air Temp Water Temp Dewpoint Dewpoint Depression Visibility Wind Speed Wind Dir Waves Ship Positions

F/V Cote D'ambre

Last reported at 2014-Jul-31 20:13 UTC. Time now 2014-Aug-01 03:53 UTC.
Position N 47°17' W 003°22'.

Length 16 m; draft 4 m.

Type: Fishing. MMSI: 227128800.

Date/timePositionNaut miles runAvg speedWind from/ knotsBaromVisibWave heightAir tempDewpointWater temp
2014-Jul-31 20:13N 47°17' W 003°22'6 9.0
2014-Jul-31 19:33N 47°23' W 003°21'9 9.2
2014-Jul-31 18:33N 47°32' W 003°22'9 8.9
2014-Jul-31 17:33N 47°41' W 003°22'3 3.0
2014-Jul-31 16:32N 47°44' W 003°22'2 1.5
2014-Jul-31 15:33N 47°42' W 003°22'6 6.5
2014-Jul-31 14:33N 47°36' W 003°22'7 7.4
2014-Jul-31 13:33N 47°28' W 003°21'7 7.4
2014-Jul-31 12:33N 47°21' W 003°21'3 0.4
2014-Jul-31 03:32N 47°24' W 003°22'8 8.2
2014-Jul-31 02:34N 47°32' W 003°22'8 8.3
2014-Jul-31 01:33N 47°41' W 003°22'3 3.1
2014-Jul-31 00:31N 47°44' W 003°22'5 5.2
2014-Jul-30 23:33N 47°39' W 003°22'8 8.1
2014-Jul-30 22:33N 47°31' W 003°23'8 8.2
2014-Jul-30 21:33N 47°22' W 003°22'8 8.2
2014-Jul-30 20:33N 47°14' W 003°22'11 0.6
2014-Jul-30 03:25N 47°25' W 003°22'7 8.3
2014-Jul-30 02:33N 47°32' W 003°22'9 8.5
2014-Jul-30 01:33N 47°41' W 003°22'3 2.8
2014-Jul-30 00:33N 47°44' W 003°22'7 6.7
2014-Jul-29 23:34N 47°37' W 003°22'8 8.4
2014-Jul-29 22:34N 47°29' W 003°22'8 8.3
2014-Jul-29 21:33N 47°20' W 003°21'8 0.4
2014-Jul-29 02:33N 47°28' W 003°22'8 8.4
2014-Jul-29 01:33N 47°37' W 003°22'7 6.9
2014-Jul-29 00:33N 47°44' W 003°22'4 4.1
2014-Jul-28 23:33N 47°40' W 003°22'8 8.5
2014-Jul-28 22:34N 47°31' W 003°22'8 8.4
2014-Jul-28 21:34N 47°23' W 003°23'4 0.2
2014-Jul-28 03:17N 47°27' W 003°22'6 8.4
2014-Jul-28 02:33N 47°33' W 003°22'11 0.2
2014-Jul-26 05:08N 47°44' W 003°22'0 0.3
2014-Jul-26 04:33N 47°44' W 003°22'0 0.2
2014-Jul-26 03:32N 47°44' W 003°22'0 0.0
2014-Jul-26 02:32N 47°44' W 003°22'0 0.0
2014-Jul-26 01:32N 47°44' W 003°22'5 5.2
2014-Jul-26 00:33N 47°39' W 003°22'9 8.7
2014-Jul-25 23:33N 47°30' W 003°22'9 8.8
2014-Jul-25 22:33N 47°21' W 003°22'3 0.1
2014-Jul-24 16:13N 47°18' W 003°21'1 1.0
2014-Jul-24 15:33N 47°19' W 003°22'0 0.2
2014-Jul-24 14:33N 47°19' W 003°22'0 0.1
2014-Jul-24 13:33N 47°19' W 003°22'5 4.5
2014-Jul-24 12:33N 47°23' W 003°22'9 8.9
2014-Jul-24 11:33N 47°32' W 003°22'9 8.9
2014-Jul-24 10:33N 47°41' W 003°22'3 2.5
2014-Jul-24 09:32N 47°44' W 003°22'0 0.5
2014-Jul-24 08:33N 47°43' W 003°22'8 8.5
2014-Jul-24 07:33N 47°35' W 003°23'9 8.7
2014-Jul-24 06:33N 47°26' W 003°22'7 7.1
2014-Jul-24 05:32N 47°19' W 003°22'7 3.4
2014-Jul-24 03:33N 47°26' W 003°24'9 8.6
2014-Jul-24 02:33N 47°34' W 003°23'9 8.8
2014-Jul-24 01:33N 47°43' W 003°22'2 1.9
2014-Jul-24 00:33N 47°41' W 003°22'9 8.6
2014-Jul-23 23:33N 47°32' W 003°23'9 8.7
2014-Jul-23 22:33N 47°24' W 003°23'22 5.4
2014-Jul-23 18:33N 47°02' W 003°24'22 1.4
2014-Jul-23 03:33N 47°24' W 003°23'9 9.0
2014-Jul-23 02:34N 47°32' W 003°23'9 9.0
2014-Jul-23 01:34N 47°41' W 003°22'1 0.8
2014-Jul-23 00:33N 47°42' W 003°22'9 8.5
2014-Jul-22 23:33N 47°34' W 003°22'9 8.6
2014-Jul-22 22:33N 47°25' W 003°22'9 8.4
2014-Jul-22 21:32N 47°17' W 003°22'14 3.1
2014-Jul-22 17:05N 47°03' W 003°24'2 2.9
2014-Jul-22 16:28N 47°01' W 003°26'3 3.3
2014-Jul-22 15:31N 46°58' W 003°25'25 2.2
2014-Jul-22 04:15N 47°24' W 003°23'6 8.6
2014-Jul-22 03:33N 47°30' W 003°22'9 9.1
2014-Jul-22 02:33N 47°39' W 003°22'5 5.0
2014-Jul-22 01:33N 47°44' W 003°22'5 5.1
2014-Jul-22 00:33N 47°39' W 003°22'8 7.9
2014-Jul-21 23:33N 47°31' W 003°23'9 8.0
2014-Jul-21 22:26N 47°22' W 003°25'  
Track history (hours):
 
Tides and Currents Weather Stations Pressure Air Temp Water Temp Dewpoint Dewpoint Depression Visibility Wind Speed Wind Dir Waves Ship Positions

F/V Cote D'ambre

Last reported at 2014-Jul-31 20:13 UTC. Time now 2014-Aug-01 03:53 UTC.
Position N 47°17' W 003°22'.

Length 16 m; draft 4 m.

Type: Fishing. MMSI: 227128800.

Date/timePositionNaut miles runAvg speedWind from/ knotsBaromVisibWave heightAir tempDewpointWater temp
2014-Jul-31 20:13N 47°17' W 003°22'6 9.0
2014-Jul-31 19:33N 47°23' W 003°21'9 9.2
2014-Jul-31 18:33N 47°32' W 003°22'9 8.9
2014-Jul-31 17:33N 47°41' W 003°22'3 3.0
2014-Jul-31 16:32N 47°44' W 003°22'2 1.5
2014-Jul-31 15:33N 47°42' W 003°22'6 6.5
2014-Jul-31 14:33N 47°36' W 003°22'7 7.4
2014-Jul-31 13:33N 47°28' W 003°21'7 7.4
2014-Jul-31 12:33N 47°21' W 003°21'3 0.4
2014-Jul-31 03:32N 47°24' W 003°22'8 8.2
2014-Jul-31 02:34N 47°32' W 003°22'8 8.3
2014-Jul-31 01:33N 47°41' W 003°22'3 3.1
2014-Jul-31 00:31N 47°44' W 003°22'5 5.2
2014-Jul-30 23:33N 47°39' W 003°22'8 8.1
2014-Jul-30 22:33N 47°31' W 003°23'8 8.2
2014-Jul-30 21:33N 47°22' W 003°22'8 8.2
2014-Jul-30 20:33N 47°14' W 003°22'11 0.6
2014-Jul-30 03:25N 47°25' W 003°22'7 8.3
2014-Jul-30 02:33N 47°32' W 003°22'9 8.5
2014-Jul-30 01:33N 47°41' W 003°22'3 2.8
2014-Jul-30 00:33N 47°44' W 003°22'7 6.7
2014-Jul-29 23:34N 47°37' W 003°22'8 8.4
2014-Jul-29 22:34N 47°29' W 003°22'8 8.3
2014-Jul-29 21:33N 47°20' W 003°21'8 0.4
2014-Jul-29 02:33N 47°28' W 003°22'8 8.4
2014-Jul-29 01:33N 47°37' W 003°22'7 6.9
2014-Jul-29 00:33N 47°44' W 003°22'4 4.1
2014-Jul-28 23:33N 47°40' W 003°22'8 8.5
2014-Jul-28 22:34N 47°31' W 003°22'8 8.4
2014-Jul-28 21:34N 47°23' W 003°23'4 0.2
2014-Jul-28 03:17N 47°27' W 003°22'6 8.4
2014-Jul-28 02:33N 47°33' W 003°22'11 0.2
2014-Jul-26 05:08N 47°44' W 003°22'0 0.3
2014-Jul-26 04:33N 47°44' W 003°22'0 0.2
2014-Jul-26 03:32N 47°44' W 003°22'0 0.0
2014-Jul-26 02:32N 47°44' W 003°22'0 0.0
2014-Jul-26 01:32N 47°44' W 003°22'5 5.2
2014-Jul-26 00:33N 47°39' W 003°22'9 8.7
2014-Jul-25 23:33N 47°30' W 003°22'9 8.8
2014-Jul-25 22:33N 47°21' W 003°22'3 0.1
2014-Jul-24 16:13N 47°18' W 003°21'1 1.0
2014-Jul-24 15:33N 47°19' W 003°22'0 0.2
2014-Jul-24 14:33N 47°19' W 003°22'0 0.1
2014-Jul-24 13:33N 47°19' W 003°22'5 4.5
2014-Jul-24 12:33N 47°23' W 003°22'9 8.9
2014-Jul-24 11:33N 47°32' W 003°22'9 8.9
2014-Jul-24 10:33N 47°41' W 003°22'3 2.5
2014-Jul-24 09:32N 47°44' W 003°22'0 0.5
2014-Jul-24 08:33N 47°43' W 003°22'8 8.5
2014-Jul-24 07:33N 47°35' W 003°23'9 8.7
2014-Jul-24 06:33N 47°26' W 003°22'7 7.1
2014-Jul-24 05:32N 47°19' W 003°22'7 3.4
2014-Jul-24 03:33N 47°26' W 003°24'9 8.6
2014-Jul-24 02:33N 47°34' W 003°23'9 8.8
2014-Jul-24 01:33N 47°43' W 003°22'2 1.9
2014-Jul-24 00:33N 47°41' W 003°22'9 8.6
2014-Jul-23 23:33N 47°32' W 003°23'9 8.7
2014-Jul-23 22:33N 47°24' W 003°23'22 5.4
2014-Jul-23 18:33N 47°02' W 003°24'22 1.4
2014-Jul-23 03:33N 47°24' W 003°23'9 9.0
2014-Jul-23 02:34N 47°32' W 003°23'9 9.0
2014-Jul-23 01:34N 47°41' W 003°22'1 0.8
2014-Jul-23 00:33N 47°42' W 003°22'9 8.5
2014-Jul-22 23:33N 47°34' W 003°22'9 8.6
2014-Jul-22 22:33N 47°25' W 003°22'9 8.4
2014-Jul-22 21:32N 47°17' W 003°22'14 3.1
2014-Jul-22 17:05N 47°03' W 003°24'2 2.9
2014-Jul-22 16:28N 47°01' W 003°26'3 3.3
2014-Jul-22 15:31N 46°58' W 003°25'25 2.2
2014-Jul-22 04:15N 47°24' W 003°23'6 8.6
2014-Jul-22 03:33N 47°30' W 003°22'9 9.1
2014-Jul-22 02:33N 47°39' W 003°22'5 5.0
2014-Jul-22 01:33N 47°44' W 003°22'5 5.1
2014-Jul-22 00:33N 47°39' W 003°22'8 7.9
2014-Jul-21 23:33N 47°31' W 003°23'9 8.0
2014-Jul-21 22:26N 47°22' W 003°25'  

Dump ship's entire track history